DEKPA EDLF-EDLF
Flight info
| Callsign | DEKPA |
|---|---|
| Flight time | N/A |
| Altitude | 3000 |
| Route | EDLF EDLF |
| Aircraft | PA28/L-SGDE/E2 |
Departure
| Time | 2026-05-06 16:19 |
|---|---|
| Airport | Grefrath-Niershorst Airfield (EDLF) |
Arrival
| Time | N/A |
|---|---|
| Airport | Grefrath-Niershorst Airfield (EDLF) |
| Time | Latitude | Longitude | Altitude | Speed | Heading |
|---|---|---|---|---|---|
| 2026-05-06 16:06 | 51.33500 | 6.35979 | 115 ft | 0 kts | 161° |
| 2026-05-06 16:14 | 51.33485 | 6.35988 | 113 ft | 7 kts | 156° |
| 2026-05-06 16:14 | 51.33456 | 6.35939 | 113 ft | 8 kts | 246° |
| 2026-05-06 16:15 | 51.33425 | 6.35832 | 113 ft | 12 kts | 247° |
| 2026-05-06 16:15 | 51.33394 | 6.35721 | 113 ft | 9 kts | 245° |
| 2026-05-06 16:15 | 51.33366 | 6.35639 | 113 ft | 7 kts | 256° |
| 2026-05-06 16:15 | 51.33349 | 6.35566 | 113 ft | 8 kts | 248° |
| 2026-05-06 16:16 | 51.33327 | 6.35495 | 114 ft | 9 kts | 242° |
| 2026-05-06 16:16 | 51.33302 | 6.35418 | 115 ft | 0 kts | 180° |
| 2026-05-06 16:16 | 51.33302 | 6.35412 | 115 ft | 0 kts | 339° |
| 2026-05-06 16:18 | 51.33285 | 6.35407 | 115 ft | 0 kts | 152° |
| 2026-05-06 16:18 | 51.33252 | 6.35439 | 116 ft | 5 kts | 93° |
| 2026-05-06 16:19 | 51.33327 | 6.35716 | 113 ft | 60 kts | 66° |
| 2026-05-06 16:19 | 51.33543 | 6.36485 | 336 ft | 77 kts | 61° |
| 2026-05-06 16:19 | 51.33746 | 6.37294 | 671 ft | 86 kts | 58° |
| 2026-05-06 16:19 | 51.33980 | 6.38251 | 986 ft | 101 kts | 77° |
| 2026-05-06 16:20 | 51.33513 | 6.39173 | 1078 ft | 123 kts | 155° |
| 2026-05-06 16:20 | 51.32708 | 6.39714 | 1137 ft | 131 kts | 156° |
| 2026-05-06 16:20 | 51.31825 | 6.39956 | 1169 ft | 136 kts | 201° |
| 2026-05-06 16:20 | 51.31249 | 6.38867 | 1329 ft | 125 kts | 249° |
| 2026-05-06 16:21 | 51.30885 | 6.37553 | 1402 ft | 127 kts | 250° |
| 2026-05-06 16:21 | 51.30514 | 6.36315 | 1496 ft | 125 kts | 250° |
| 2026-05-06 16:21 | 51.30218 | 6.35002 | 1528 ft | 123 kts | 266° |
| 2026-05-06 16:21 | 51.30570 | 6.33947 | 1510 ft | 106 kts | 335° |
| 2026-05-06 16:22 | 51.31195 | 6.33503 | 1442 ft | 91 kts | 338° |
| 2026-05-06 16:22 | 51.31775 | 6.33073 | 1188 ft | 94 kts | 338° |
| 2026-05-06 16:22 | 51.32432 | 6.33090 | 687 ft | 108 kts | 33° |
| 2026-05-06 16:22 | 51.32884 | 6.33982 | 388 ft | 97 kts | 50° |
| 2026-05-06 16:23 | 51.33099 | 6.34916 | 221 ft | 86 kts | 62° |
| 2026-05-06 16:23 | 51.33332 | 6.35726 | 115 ft | 73 kts | 60° |
| 2026-05-06 16:23 | 51.33569 | 6.36503 | 310 ft | 81 kts | 59° |
| 2026-05-06 16:23 | 51.33805 | 6.37375 | 647 ft | 86 kts | 61° |
| 2026-05-06 16:24 | 51.33963 | 6.38319 | 994 ft | 95 kts | 90° |
| 2026-05-06 16:24 | 51.33499 | 6.39066 | 1103 ft | 102 kts | 156° |
| 2026-05-06 16:24 | 51.32845 | 6.39505 | 1226 ft | 101 kts | 155° |
| 2026-05-06 16:24 | 51.32179 | 6.39899 | 1285 ft | 105 kts | 179° |
| 2026-05-06 16:25 | 51.31653 | 6.39201 | 1291 ft | 107 kts | 249° |
| 2026-05-06 16:25 | 51.31311 | 6.38100 | 1259 ft | 113 kts | 249° |
| 2026-05-06 16:25 | 51.30969 | 6.37032 | 1347 ft | 104 kts | 247° |
| 2026-05-06 16:25 | 51.30612 | 6.36014 | 1399 ft | 104 kts | 245° |
| 2026-05-06 16:26 | 51.30458 | 6.34935 | 1311 ft | 94 kts | 303° |
| 2026-05-06 16:26 | 51.30975 | 6.34414 | 1234 ft | 89 kts | 337° |
| 2026-05-06 16:26 | 51.31529 | 6.34006 | 1040 ft | 88 kts | 336° |
| 2026-05-06 16:26 | 51.32063 | 6.33562 | 786 ft | 85 kts | 332° |
| 2026-05-06 16:27 | 51.32606 | 6.33271 | 530 ft | 82 kts | 26° |
| 2026-05-06 16:27 | 51.32835 | 6.34056 | 396 ft | 74 kts | 46° |
| 2026-05-06 16:27 | 51.33069 | 6.34742 | 287 ft | 78 kts | 45° |
| 2026-05-06 16:27 | 51.33288 | 6.35574 | 122 ft | 79 kts | 61° |
| 2026-05-06 16:28 | 51.33499 | 6.36281 | 130 ft | 76 kts | 66° |
| 2026-05-06 16:28 | 51.33696 | 6.37019 | 396 ft | 71 kts | 60° |
| 2026-05-06 16:28 | 51.33886 | 6.37763 | 647 ft | 69 kts | 55° |
| 2026-05-06 16:28 | 51.34141 | 6.38369 | 873 ft | 65 kts | 43° |
| 2026-05-06 16:29 | 51.34455 | 6.38961 | 982 ft | 74 kts | 39° |
| 2026-05-06 16:29 | 51.34834 | 6.39591 | 1134 ft | 84 kts | 43° |
| 2026-05-06 16:29 | 51.35239 | 6.40259 | 1361 ft | 84 kts | 41° |
| 2026-05-06 16:29 | 51.35652 | 6.40965 | 1504 ft | 94 kts | 41° |
| 2026-05-06 16:30 | 51.36137 | 6.41783 | 1515 ft | 107 kts | 42° |
| 2026-05-06 16:30 | 51.36316 | 6.42078 | 1523 ft | 111 kts | 42° |
| 2026-05-06 16:30 | 51.37284 | 6.43626 | 1520 ft | 123 kts | 41° |
| 2026-05-06 16:30 | 51.37684 | 6.44275 | 1519 ft | 124 kts | 41° |
| 2026-05-06 16:31 | 51.38485 | 6.45582 | 1517 ft | 124 kts | 41° |
| 2026-05-06 16:31 | 51.39096 | 6.46564 | 1516 ft | 125 kts | 41° |
| 2026-05-06 16:31 | 51.39513 | 6.47234 | 1516 ft | 126 kts | 41° |
| 2026-05-06 16:31 | 51.40133 | 6.48214 | 1515 ft | 124 kts | 41° |
| 2026-05-06 16:32 | 51.40746 | 6.49167 | 1517 ft | 123 kts | 41° |
| 2026-05-06 16:32 | 51.41367 | 6.50124 | 1513 ft | 124 kts | 43° |
| 2026-05-06 16:32 | 51.41928 | 6.51184 | 1516 ft | 126 kts | 47° |
| 2026-05-06 16:32 | 51.42482 | 6.52282 | 1516 ft | 127 kts | 47° |
| 2026-05-06 16:33 | 51.43041 | 6.53370 | 1512 ft | 125 kts | 47° |
| 2026-05-06 16:33 | 51.43457 | 6.54598 | 1508 ft | 127 kts | 63° |
| 2026-05-06 16:33 | 51.43786 | 6.55909 | 1512 ft | 129 kts | 63° |
| 2026-05-06 16:34 | 51.44453 | 6.58578 | 1510 ft | 129 kts | 62° |
| 2026-05-06 16:34 | 51.44790 | 6.59916 | 1510 ft | 129 kts | 63° |
| 2026-05-06 16:34 | 51.45124 | 6.61252 | 1511 ft | 129 kts | 63° |
| 2026-05-06 16:34 | 51.45469 | 6.62587 | 1511 ft | 129 kts | 63° |
| 2026-05-06 16:35 | 51.45813 | 6.63916 | 1511 ft | 129 kts | 63° |
| 2026-05-06 16:35 | 51.46153 | 6.65250 | 1511 ft | 129 kts | 63° |
| 2026-05-06 16:35 | 51.46610 | 6.67024 | 1509 ft | 129 kts | 63° |
| 2026-05-06 16:35 | 51.46842 | 6.67924 | 1506 ft | 129 kts | 63° |
| 2026-05-06 16:36 | 51.47184 | 6.69259 | 1509 ft | 130 kts | 63° |
| 2026-05-06 16:36 | 51.47532 | 6.70577 | 1509 ft | 130 kts | 62° |
| 2026-05-06 16:36 | 51.47880 | 6.71913 | 1509 ft | 130 kts | 63° |
| 2026-05-06 16:36 | 51.48227 | 6.73257 | 1509 ft | 130 kts | 63° |
| 2026-05-06 16:37 | 51.48588 | 6.74580 | 1507 ft | 129 kts | 63° |
| 2026-05-06 16:37 | 51.48957 | 6.75888 | 1506 ft | 128 kts | 62° |
| 2026-05-06 16:37 | 51.49315 | 6.77194 | 1507 ft | 128 kts | 62° |
| 2026-05-06 16:37 | 51.49673 | 6.78514 | 1505 ft | 129 kts | 63° |
| 2026-05-06 16:38 | 51.50029 | 6.79828 | 1504 ft | 128 kts | 62° |
| 2026-05-06 16:38 | 51.50402 | 6.81120 | 1503 ft | 127 kts | 53° |
| 2026-05-06 16:38 | 51.50940 | 6.82235 | 1503 ft | 126 kts | 48° |
| 2026-05-06 16:38 | 51.51501 | 6.83315 | 1503 ft | 127 kts | 47° |
| 2026-05-06 16:39 | 51.52071 | 6.84392 | 1501 ft | 125 kts | 40° |
| 2026-05-06 16:39 | 51.52763 | 6.85182 | 1499 ft | 124 kts | 31° |
| 2026-05-06 16:39 | 51.53490 | 6.85941 | 1503 ft | 125 kts | 31° |
| 2026-05-06 16:39 | 51.54218 | 6.86713 | 1501 ft | 125 kts | 31° |
| 2026-05-06 16:40 | 51.54943 | 6.87465 | 1497 ft | 121 kts | 29° |
| 2026-05-06 16:40 | 51.55685 | 6.88073 | 1500 ft | 122 kts | 8° |
| 2026-05-06 16:40 | 51.56541 | 6.88113 | 1498 ft | 125 kts | 1° |
| 2026-05-06 16:40 | 51.57415 | 6.88110 | 1497 ft | 126 kts | 1° |
| 2026-05-06 16:41 | 51.58309 | 6.88116 | 1412 ft | 131 kts | 1° |
| 2026-05-06 16:41 | 51.59203 | 6.87995 | 1275 ft | 129 kts | 344° |
| 2026-05-06 16:41 | 51.59738 | 6.86932 | 1028 ft | 129 kts | 282° |
| 2026-05-06 16:41 | 51.59522 | 6.85673 | 1104 ft | 111 kts | 248° |
| 2026-05-06 16:42 | 51.59229 | 6.84613 | 1192 ft | 96 kts | 255° |
| 2026-05-06 16:42 | 51.59004 | 6.83608 | 1235 ft | 95 kts | 254° |
| 2026-05-06 16:42 | 51.59123 | 6.82677 | 1182 ft | 88 kts | 320° |
| 2026-05-06 16:42 | 51.59709 | 6.82331 | 1086 ft | 92 kts | 347° |
| 2026-05-06 16:43 | 51.60336 | 6.82116 | 1068 ft | 90 kts | 352° |
| 2026-05-06 16:43 | 51.60939 | 6.82018 | 1035 ft | 85 kts | 14° |
| 2026-05-06 16:43 | 51.61358 | 6.82670 | 869 ft | 87 kts | 50° |
| 2026-05-06 16:43 | 51.61472 | 6.83605 | 561 ft | 92 kts | 81° |
| 2026-05-06 16:44 | 51.61518 | 6.84505 | 406 ft | 73 kts | 79° |
| 2026-05-06 16:44 | 51.61559 | 6.85289 | 229 ft | 67 kts | 79° |
| 2026-05-06 16:44 | 51.61593 | 6.85919 | 213 ft | 46 kts | 85° |
| 2026-05-06 16:44 | 51.61609 | 6.86255 | 215 ft | 8 kts | 81° |
| 2026-05-06 16:45 | 51.61585 | 6.86291 | 216 ft | 4 kts | 174° |
| 2026-05-06 16:45 | 51.61536 | 6.86262 | 219 ft | 11 kts | 207° |
| 2026-05-06 16:45 | 51.61516 | 6.86270 | 219 ft | 0 kts | 149° |